Time;durP1;ratioP1;P1;durP2;ratioP2;P2;SDS_P1;SDS_P2;PMS_P1;PMS_P2;Temp;Humidity;BMP_temperature;BMP_pressure;BME280_temperature;BME280_humidity;BME280_pressure;Samples;Min_cycle;Max_cycle;Signal;HPM_P1;HPM_P2
2023/09/02 00:01:14;;;;;;;;;14.00;14.00;;;;;;;;5019140;28;45201;-74
2023/09/02 00:03:39;;;;;;;;;12.67;12.67;;;;;;;;5017864;28;45235;-74
2023/09/02 00:06:04;;;;;;;;;12.67;11.67;;;;;;;;5011119;28;46863;-74
2023/09/02 00:08:29;;;;;;;;;12.67;12.00;;;;;;;;5017098;28;45592;-73
2023/09/02 00:10:55;;;;;;;;;13.00;11.00;;;;;;;;5020168;28;45375;-73
2023/09/02 00:13:20;;;;;;;;;16.00;13.00;;;;;;;;5015377;28;45284;-73
2023/09/02 00:15:45;;;;;;;;;14.00;14.00;;;;;;;;5013472;28;45216;-73
2023/09/02 00:18:10;;;;;;;;;14.33;12.00;;;;;;;;5017148;28;46498;-73
2023/09/02 00:20:35;;;;;;;;;13.67;11.67;;;;;;;;5017315;28;45438;-73
2023/09/02 00:23:01;;;;;;;;;15.67;13.00;;;;;;;;5018131;28;45293;-73
2023/09/02 00:25:26;;;;;;;;;15.00;15.00;;;;;;;;5006759;28;45246;-74
2023/09/02 00:27:52;;;;;;;;;11.67;11.00;;;;;;;;5012433;28;46366;-74
2023/09/02 00:30:17;;;;;;;;;13.00;11.67;;;;;;;;5012376;28;45362;-74
2023/09/02 00:32:42;;;;;;;;;13.00;13.00;;;;;;;;5015292;28;45280;-74
2023/09/02 00:35:08;;;;;;;;;13.00;13.00;;;;;;;;5012022;28;45394;-74
2023/09/02 00:37:33;;;;;;;;;12.33;12.33;;;;;;;;5012776;28;45452;-74
2023/09/02 00:39:59;;;;;;;;;14.67;12.67;;;;;;;;5014516;28;45377;-74
2023/09/02 00:42:25;;;;;;;;;13.33;13.33;;;;;;;;5018066;28;45550;-74
2023/09/02 00:44:50;;;;;;;;;13.33;12.67;;;;;;;;5015454;28;46143;-74
2023/09/02 00:47:15;;;;;;;;;10.67;10.67;;;;;;;;5014249;28;45257;-73
2023/09/02 00:49:41;;;;;;;;;15.33;14.00;;;;;;;;5014337;28;45257;-73
2023/09/02 00:52:06;;;;;;;;;13.67;11.00;;;;;;;;5016532;28;45189;-74
2023/09/02 00:54:32;;;;;;;;;13.00;12.00;;;;;;;;5014854;28;45443;-74
2023/09/02 00:56:57;;;;;;;;;14.67;12.33;;;;;;;;5017668;28;45490;-74
2023/09/02 00:59:22;;;;;;;;;13.67;12.67;;;;;;;;5013022;28;45257;-74
2023/09/02 01:01:48;;;;;;;;;13.67;13.00;;;;;;;;5017922;28;45950;-73
2023/09/02 01:04:13;;;;;;;;;15.67;14.33;;;;;;;;5014286;28;45759;-73
2023/09/02 01:06:40;;;;;;;;;18.33;15.33;;;;;;;;5018430;28;45451;-74
2023/09/02 01:09:05;;;;;;;;;14.00;12.33;;;;;;;;5012656;28;45460;-74
2023/09/02 01:11:32;;;;;;;;;14.67;13.33;;;;;;;;5007705;28;45178;-74
2023/09/02 01:13:58;;;;;;;;;17.67;14.67;;;;;;;;5011692;28;45241;-73
2023/09/02 01:16:23;;;;;;;;;16.00;14.67;;;;;;;;5004303;28;45233;-73
2023/09/02 01:18:48;;;;;;;;;15.00;15.00;;;;;;;;5012225;28;45205;-73
2023/09/02 01:21:46;;;;;;;;;15.67;15.67;;;;;;;;5025534;28;45173;-73
2023/09/02 01:24:30;;;;;;;;;12.00;12.00;;;;;;;;5003304;28;45463;-73
2023/09/02 01:27:02;;;;;;;;;11.00;11.00;;;;;;;;5013887;28;46386;-73
2023/09/02 01:29:28;;;;;;;;;11.00;11.00;;;;;;;;5011936;28;45368;-73
2023/09/02 01:31:54;;;;;;;;;14.00;13.00;;;;;;;;5017155;28;45376;-73
2023/09/02 01:34:21;;;;;;;;;18.33;14.00;;;;;;;;5011177;28;45285;-73
2023/09/02 01:36:47;;;;;;;;;17.33;16.67;;;;;;;;5013386;28;45394;-73
2023/09/02 01:39:14;;;;;;;;;10.33;9.67;;;;;;;;5012043;28;45345;-73
2023/09/02 01:41:41;;;;;;;;;16.67;13.00;;;;;;;;5013843;28;45244;-73
2023/09/02 01:44:07;;;;;;;;;14.00;11.67;;;;;;;;5011697;28;45617;-74
2023/09/02 01:46:32;;;;;;;;;11.00;11.00;;;;;;;;5013592;28;48139;-74
2023/09/02 01:48:57;;;;;;;;;27.67;22.00;;;;;;;;5017479;28;45280;-73
2023/09/02 01:51:23;;;;;;;;;14.33;12.33;;;;;;;;5019223;28;45245;-73
2023/09/02 01:53:48;;;;;;;;;15.33;11.00;;;;;;;;5018545;28;45762;-73
2023/09/02 01:56:14;;;;;;;;;11.33;11.33;;;;;;;;5020515;28;45272;-73
2023/09/02 01:58:39;;;;;;;;;12.67;11.00;;;;;;;;5017454;28;45389;-73
2023/09/02 02:01:04;;;;;;;;;15.00;11.00;;;;;;;;5015305;28;44653;-73
2023/09/02 02:03:34;;;;;;;;;15.00;12.00;;;;;;;;5018674;28;45290;-73
2023/09/02 02:06:00;;;;;;;;;12.00;9.67;;;;;;;;5015996;28;45022;-73
2023/09/02 02:08:25;;;;;;;;;15.00;12.00;;;;;;;;5018233;28;45316;-73
2023/09/02 02:10:52;;;;;;;;;15.00;12.67;;;;;;;;5016407;28;45447;-73
2023/09/02 02:13:17;;;;;;;;;10.00;8.67;;;;;;;;5016042;28;45248;-73
2023/09/02 02:15:43;;;;;;;;;12.00;9.67;;;;;;;;5020772;28;45530;-73
2023/09/02 02:18:08;;;;;;;;;10.67;10.00;;;;;;;;5017923;28;45337;-73
2023/09/02 02:20:40;;;;;;;;;12.67;12.67;;;;;;;;5018025;28;45238;-73
2023/09/02 02:23:06;;;;;;;;;12.00;11.00;;;;;;;;5018372;28;45400;-73
2023/09/02 02:25:32;;;;;;;;;11.67;10.33;;;;;;;;5016178;28;47134;-73
2023/09/02 02:27:57;;;;;;;;;10.00;10.00;;;;;;;;5015648;28;45216;-72
2023/09/02 02:30:22;;;;;;;;;11.00;9.67;;;;;;;;5012134;28;45533;-73
2023/09/02 02:32:47;;;;;;;;;13.67;11.33;;;;;;;;5017937;28;45399;-73
2023/09/02 02:35:14;;;;;;;;;14.33;11.00;;;;;;;;5011775;28;46568;-73
2023/09/02 02:37:39;;;;;;;;;10.33;10.33;;;;;;;;5017429;28;45266;-73
2023/09/02 02:40:05;;;;;;;;;15.00;12.67;;;;;;;;5012967;28;45390;-73
2023/09/02 02:42:30;;;;;;;;;11.67;9.67;;;;;;;;5017572;28;45351;-73
2023/09/02 02:44:55;;;;;;;;;11.33;9.33;;;;;;;;5015871;28;45426;-73
2023/09/02 02:47:20;;;;;;;;;11.33;10.33;;;;;;;;5017912;28;45324;-73
2023/09/02 02:49:46;;;;;;;;;11.00;9.67;;;;;;;;5015691;28;45267;-73
2023/09/02 02:52:11;;;;;;;;;13.33;10.67;;;;;;;;5018516;28;45370;-73
2023/09/02 02:54:38;;;;;;;;;9.67;6.67;;;;;;;;5013071;28;45419;-73
2023/09/02 02:57:04;;;;;;;;;10.67;8.33;;;;;;;;5017130;28;45233;-73
2023/09/02 02:59:29;;;;;;;;;12.67;10.67;;;;;;;;5008821;28;44715;-73
2023/09/02 03:01:54;;;;;;;;;9.33;9.00;;;;;;;;5004447;28;45329;-73
2023/09/02 03:04:19;;;;;;;;;10.33;9.67;;;;;;;;5018551;28;45895;-72
2023/09/02 03:06:45;;;;;;;;;9.67;8.00;;;;;;;;5008743;28;45336;-72
2023/09/02 03:09:10;;;;;;;;;11.00;10.00;;;;;;;;5012764;28;45181;-73
2023/09/02 03:11:35;;;;;;;;;10.00;9.00;;;;;;;;5009868;28;45228;-72
2023/09/02 03:14:01;;;;;;;;;9.00;8.00;;;;;;;;5013266;28;45315;-73
2023/09/02 03:16:26;;;;;;;;;9.00;7.67;;;;;;;;5020405;28;45295;-73
2023/09/02 03:18:52;;;;;;;;;9.00;7.00;;;;;;;;5014978;28;45194;-72
2023/09/02 03:21:17;;;;;;;;;9.67;7.67;;;;;;;;5021973;28;45307;-73
2023/09/02 03:23:42;;;;;;;;;8.33;7.33;;;;;;;;5015871;28;46157;-73
2023/09/02 03:26:12;;;;;;;;;8.00;6.33;;;;;;;;5009344;28;45274;-73
2023/09/02 03:28:37;;;;;;;;;6.67;6.67;;;;;;;;5016323;28;45367;-73
2023/09/02 03:31:03;;;;;;;;;9.00;7.33;;;;;;;;5010742;28;45597;-73
2023/09/02 03:33:28;;;;;;;;;7.33;5.33;;;;;;;;5017667;28;45362;-73
2023/09/02 03:35:54;;;;;;;;;7.00;7.00;;;;;;;;5010257;28;45483;-73
2023/09/02 03:38:19;;;;;;;;;9.67;8.00;;;;;;;;5018130;28;45307;-73
2023/09/02 03:40:44;;;;;;;;;8.00;8.00;;;;;;;;5011800;28;45375;-73
2023/09/02 03:43:09;;;;;;;;;9.67;8.00;;;;;;;;5016766;28;46943;-72
2023/09/02 03:45:36;;;;;;;;;8.00;8.00;;;;;;;;5004731;28;45371;-73
2023/09/02 03:48:01;;;;;;;;;10.00;9.00;;;;;;;;5019141;28;45344;-73
2023/09/02 03:50:26;;;;;;;;;6.00;6.00;;;;;;;;5006339;28;45443;-73
2023/09/02 03:52:51;;;;;;;;;8.67;8.00;;;;;;;;5018741;28;48111;-73
2023/09/02 03:55:17;;;;;;;;;10.00;8.67;;;;;;;;5016625;28;45250;-73
2023/09/02 03:57:42;;;;;;;;;7.67;7.00;;;;;;;;5018610;28;45213;-73
2023/09/02 04:00:08;;;;;;;;;8.67;8.67;;;;;;;;5015521;28;45979;-72
2023/09/02 04:02:33;;;;;;;;;8.33;8.33;;;;;;;;5019895;28;45332;-72
2023/09/02 04:04:58;;;;;;;;;5.00;5.00;;;;;;;;5005736;28;45358;-73
2023/09/02 04:07:23;;;;;;;;;8.33;7.33;;;;;;;;5008189;28;45321;-72
2023/09/02 04:09:48;;;;;;;;;6.67;6.67;;;;;;;;5017633;28;45969;-72
2023/09/02 04:12:13;;;;;;;;;9.33;8.00;;;;;;;;5008372;28;45502;-73
2023/09/02 04:14:39;;;;;;;;;6.67;6.67;;;;;;;;5011215;28;45213;-72
2023/09/02 04:17:04;;;;;;;;;6.67;6.67;;;;;;;;5018096;28;45146;-73
2023/09/02 04:19:29;;;;;;;;;8.33;6.00;;;;;;;;5010487;28;45404;-73
2023/09/02 04:21:54;;;;;;;;;8.00;8.00;;;;;;;;5010515;28;46354;-73
2023/09/02 04:24:19;;;;;;;;;6.33;6.33;;;;;;;;5012937;28;45378;-72
2023/09/02 04:26:45;;;;;;;;;7.33;5.67;;;;;;;;5011643;28;45562;-73
2023/09/02 04:29:10;;;;;;;;;8.00;5.67;;;;;;;;5012812;28;45377;-73
2023/09/02 04:31:36;;;;;;;;;9.00;8.33;;;;;;;;5017291;28;46881;-74
2023/09/02 04:34:01;;;;;;;;;6.33;6.33;;;;;;;;5011127;28;45322;-73
2023/09/02 04:36:26;;;;;;;;;6.67;6.33;;;;;;;;5006668;28;45414;-75
2023/09/02 04:38:51;;;;;;;;;7.67;7.67;;;;;;;;5004962;28;45301;-74
2023/09/02 04:41:17;;;;;;;;;6.67;6.67;;;;;;;;5005662;28;45380;-76
2023/09/02 04:43:42;;;;;;;;;6.33;5.00;;;;;;;;5004592;28;45487;-76
2023/09/02 04:46:07;;;;;;;;;7.00;7.00;;;;;;;;5015734;28;45273;-76
2023/09/02 04:48:33;;;;;;;;;5.00;5.00;;;;;;;;5015885;28;45486;-76
2023/09/02 04:50:58;;;;;;;;;7.00;6.00;;;;;;;;5006848;28;45356;-74
2023/09/02 04:53:24;;;;;;;;;7.00;5.67;;;;;;;;5016909;28;45292;-73
2023/09/02 04:55:49;;;;;;;;;7.00;5.67;;;;;;;;5008031;28;45431;-73
2023/09/02 04:58:15;;;;;;;;;6.67;5.67;;;;;;;;5016643;28;45694;-74
2023/09/02 05:00:40;;;;;;;;;7.67;6.00;;;;;;;;5008358;28;47559;-74
2023/09/02 05:03:06;;;;;;;;;8.33;6.00;;;;;;;;5017333;28;45729;-74
2023/09/02 05:05:31;;;;;;;;;9.00;6.67;;;;;;;;5006685;28;45152;-73
2023/09/02 05:07:57;;;;;;;;;4.67;4.67;;;;;;;;5009818;28;46031;-74
2023/09/02 05:10:22;;;;;;;;;7.00;5.00;;;;;;;;5006125;28;45168;-73
2023/09/02 05:12:47;;;;;;;;;7.00;5.67;;;;;;;;5018722;28;45288;-73
2023/09/02 05:15:12;;;;;;;;;6.33;4.67;;;;;;;;5006090;28;45509;-73
2023/09/02 05:17:38;;;;;;;;;7.00;5.67;;;;;;;;5011188;28;45734;-74
2023/09/02 05:20:03;;;;;;;;;5.00;5.00;;;;;;;;5007440;28;46069;-73
2023/09/02 05:22:29;;;;;;;;;6.33;6.33;;;;;;;;5018542;28;45438;-73
2023/09/02 05:24:54;;;;;;;;;2.67;2.67;;;;;;;;5024644;28;45537;-74
2023/09/02 05:27:20;;;;;;;;;5.00;5.00;;;;;;;;5023634;28;45599;-74
2023/09/02 05:29:45;;;;;;;;;5.00;5.00;;;;;;;;5016724;28;46140;-74
2023/09/02 05:32:12;;;;;;;;;7.67;5.00;;;;;;;;5018211;28;45285;-74
2023/09/02 05:34:37;;;;;;;;;4.33;3.67;;;;;;;;5022477;28;46647;-74
2023/09/02 05:37:03;;;;;;;;;6.33;5.00;;;;;;;;5024455;28;45502;-74
2023/09/02 05:39:28;;;;;;;;;9.33;6.33;;;;;;;;5022330;28;47641;-74
2023/09/02 05:41:53;;;;;;;;;5.00;5.00;;;;;;;;5024226;28;45434;-74
2023/09/02 05:44:19;;;;;;;;;4.33;3.00;;;;;;;;5019657;28;45487;-75
2023/09/02 05:46:44;;;;;;;;;7.00;7.00;;;;;;;;5021977;28;45395;-73
2023/09/02 05:49:10;;;;;;;;;7.33;5.33;;;;;;;;5020537;28;46223;-75
2023/09/02 05:51:35;;;;;;;;;6.00;6.00;;;;;;;;5020065;28;45391;-75
2023/09/02 05:54:00;;;;;;;;;5.00;5.00;;;;;;;;5020897;28;45347;-75
2023/09/02 05:56:25;;;;;;;;;6.33;5.67;;;;;;;;5024132;28;45352;-75
2023/09/02 05:58:51;;;;;;;;;6.67;5.67;;;;;;;;5022239;28;45550;-78
2023/09/02 06:01:16;;;;;;;;;4.00;3.00;;;;;;;;5017735;28;45969;-73
2023/09/02 06:03:41;;;;;;;;;7.00;7.00;;;;;;;;5019904;28;45296;-72
2023/09/02 06:06:12;;;;;;;;;6.67;4.67;;;;;;;;5021611;28;45320;-72
2023/09/02 06:08:38;;;;;;;;;3.67;3.67;;;;;;;;5020107;28;46545;-73
2023/09/02 06:11:03;;;;;;;;;7.33;5.67;;;;;;;;5021114;28;45241;-73
2023/09/02 06:13:28;;;;;;;;;4.67;4.67;;;;;;;;5020267;28;45376;-71
2023/09/02 06:16:01;;;;;;;;;7.67;6.00;;;;;;;;5022919;28;46750;-72
2023/09/02 06:18:27;;;;;;;;;4.67;4.67;;;;;;;;5020795;28;45273;-72
2023/09/02 06:20:52;;;;;;;;;5.33;5.33;;;;;;;;5026397;28;45374;-73
2023/09/02 06:23:17;;;;;;;;;6.00;4.00;;;;;;;;5021236;28;45404;-74
2023/09/02 06:25:42;;;;;;;;;4.00;4.00;;;;;;;;5014504;28;45419;-74
2023/09/02 06:28:08;;;;;;;;;4.33;4.33;;;;;;;;5021494;28;46231;-74
2023/09/02 06:30:35;;;;;;;;;5.00;5.00;;;;;;;;5016202;28;45423;-74
2023/09/02 06:33:01;;;;;;;;;7.33;4.00;;;;;;;;5022125;28;45342;-74
2023/09/02 06:35:29;;;;;;;;;5.33;5.33;;;;;;;;5016129;28;47373;-74
2023/09/02 06:37:54;;;;;;;;;6.00;4.67;;;;;;;;5017916;28;45662;-73
2023/09/02 06:40:19;;;;;;;;;5.00;5.00;;;;;;;;5013578;28;45459;-74
2023/09/02 06:42:44;;;;;;;;;6.33;5.33;;;;;;;;5015399;28;45474;-74
2023/09/02 06:45:10;;;;;;;;;9.00;6.33;;;;;;;;5005547;28;45586;-74
2023/09/02 06:47:35;;;;;;;;;7.00;6.00;;;;;;;;5019308;28;45165;-74
2023/09/02 06:50:00;;;;;;;;;5.33;5.33;;;;;;;;5009385;28;45470;-74
2023/09/02 06:52:25;;;;;;;;;5.67;5.67;;;;;;;;5019067;28;45530;-73
2023/09/02 06:54:50;;;;;;;;;6.67;6.00;;;;;;;;5011688;28;45407;-73
2023/09/02 06:57:16;;;;;;;;;8.67;6.00;;;;;;;;5018497;28;46478;-73
2023/09/02 06:59:41;;;;;;;;;5.33;5.33;;;;;;;;5008647;28;45622;-73
2023/09/02 07:02:06;;;;;;;;;6.00;4.67;;;;;;;;5006658;28;45436;-73
2023/09/02 07:04:31;;;;;;;;;6.33;4.67;;;;;;;;5010209;28;45276;-73
2023/09/02 07:06:57;;;;;;;;;11.33;8.00;;;;;;;;5012476;28;45323;-75
2023/09/02 07:09:22;;;;;;;;;8.33;6.00;;;;;;;;5009752;28;45363;-74
2023/09/02 07:11:47;;;;;;;;;6.33;5.33;;;;;;;;5014828;28;45194;-75
2023/09/02 07:14:12;;;;;;;;;7.00;7.00;;;;;;;;5004169;28;45502;-74
2023/09/02 07:16:37;;;;;;;;;6.00;6.00;;;;;;;;5020162;28;45301;-77
2023/09/02 07:19:03;;;;;;;;;12.00;8.00;;;;;;;;5011887;28;45722;-77
2023/09/02 07:21:28;;;;;;;;;7.00;6.00;;;;;;;;5021395;28;45317;-78
2023/09/02 07:23:54;;;;;;;;;5.33;5.33;;;;;;;;5013913;28;45300;-77
2023/09/02 07:26:19;;;;;;;;;7.67;5.67;;;;;;;;5018340;28;46164;-77
2023/09/02 07:28:44;;;;;;;;;8.33;7.00;;;;;;;;5016037;28;45480;-77
2023/09/02 07:31:10;;;;;;;;;8.00;8.00;;;;;;;;5012295;28;45481;-78
2023/09/02 07:33:35;;;;;;;;;5.33;5.00;;;;;;;;5016083;28;45287;-78
2023/09/02 07:36:11;;;;;;;;;5.00;3.33;;;;;;;;5015368;28;46685;-78
2023/09/02 07:38:37;;;;;;;;;9.00;5.33;;;;;;;;5016655;28;45179;-78
2023/09/02 07:41:03;;;;;;;;;18.33;13.33;;;;;;;;5013505;28;45312;-78
2023/09/02 07:43:28;;;;;;;;;5.00;5.00;;;;;;;;5017528;28;45609;-78
2023/09/02 07:45:54;;;;;;;;;4.67;4.67;;;;;;;;5005758;28;45332;-79
2023/09/02 07:48:19;;;;;;;;;8.00;6.67;;;;;;;;5017457;28;45205;-77
2023/09/02 07:50:44;;;;;;;;;8.00;8.00;;;;;;;;5008511;28;45478;-77
2023/09/02 07:53:09;;;;;;;;;11.33;8.00;;;;;;;;5018488;28;45562;-78
2023/09/02 07:55:35;;;;;;;;;47.00;20.00;;;;;;;;5004962;28;46079;-78
2023/09/02 07:58:01;;;;;;;;;17.00;9.33;;;;;;;;5018778;28;45234;-80
2023/09/02 08:00:27;;;;;;;;;24.67;14.33;;;;;;;;5010283;28;45285;-79
2023/09/02 08:02:52;;;;;;;;;7.00;6.00;;;;;;;;5019940;28;45351;-79
2023/09/02 08:05:17;;;;;;;;;17.00;14.00;;;;;;;;5004382;28;45293;-78
2023/09/02 08:07:42;;;;;;;;;11.67;10.67;;;;;;;;5010200;28;45434;-77
2023/09/02 08:10:08;;;;;;;;;8.00;7.00;;;;;;;;5010976;28;45412;-75
2023/09/02 08:12:33;;;;;;;;;7.50;6.00;;;;;;;;5009357;28;45463;-77
2023/09/02 08:14:58;;;;;;;;;10.75;8.00;;;;;;;;5009964;28;45427;-75
2023/09/02 08:17:24;;;;;;;;;10.25;7.00;;;;;;;;5013209;28;45513;-76
2023/09/02 08:19:49;;;;;;;;;6.25;6.25;;;;;;;;5012957;28;45236;-77
2023/09/02 08:22:14;;;;;;;;;8.25;7.25;;;;;;;;5018292;28;46063;-79
2023/09/02 08:24:40;;;;;;;;;12.67;11.00;;;;;;;;5010963;28;46168;-78
2023/09/02 08:27:05;;;;;;;;;27.67;24.33;;;;;;;;5019095;28;45436;-74
2023/09/02 08:29:30;;;;;;;;;8.00;6.75;;;;;;;;5012358;28;45401;-73
2023/09/02 08:31:56;;;;;;;;;6.00;6.00;;;;;;;;5017584;28;46754;-72
2023/09/02 08:34:21;;;;;;;;;47.00;25.00;;;;;;;;5012315;28;45827;-72
2023/09/02 08:36:46;;;;;;;;;10.00;8.75;;;;;;;;5014116;28;45868;-71
2023/09/02 08:39:11;;;;;;;;;7.75;7.50;;;;;;;;5012256;28;45456;-72
2023/09/02 08:41:38;;;;;;;;;23.50;17.25;;;;;;;;5013423;28;47432;-74
2023/09/02 08:44:03;;;;;;;;;9.25;7.75;;;;;;;;5013012;28;46767;-74
2023/09/02 08:46:30;;;;;;;;;12.75;9.25;;;;;;;;5014733;28;45162;-73
2023/09/02 08:48:56;;;;;;;;;13.25;8.75;;;;;;;;5013054;28;45368;-73
2023/09/02 08:51:25;;;;;;;;;12.25;7.25;;;;;;;;5016938;28;45470;-71
2023/09/02 08:53:50;;;;;;;;;427.17;364.33;;;;;;;;5013726;28;47028;-74
2023/09/02 08:56:16;;;;;;;;;66.25;52.50;;;;;;;;5018036;28;45348;-72
2023/09/02 08:58:41;;;;;;;;;13.00;10.75;;;;;;;;5015554;28;45177;-73
2023/09/02 09:01:07;;;;;;;;;25.25;22.00;;;;;;;;5014291;28;45753;-71
2023/09/02 09:03:33;;;;;;;;;16.50;14.00;;;;;;;;5016213;28;45351;-71
2023/09/02 09:05:59;;;;;;;;;10.00;8.75;;;;;;;;5017192;28;45247;-75
2023/09/02 09:08:25;;;;;;;;;21.25;16.00;;;;;;;;5016081;28;45221;-73
2023/09/02 09:10:51;;;;;;;;;8.00;8.00;;;;;;;;5014098;28;45565;-73
2023/09/02 09:13:17;;;;;;;;;7.75;6.75;;;;;;;;5015752;28;45567;-73
2023/09/02 09:15:43;;;;;;;;;5.20;5.00;;;;;;;;5013933;28;45273;-73
2023/09/02 09:18:09;;;;;;;;;5.80;4.40;;;;;;;;5017287;28;45447;-73
2023/09/02 09:20:35;;;;;;;;;4.00;4.00;;;;;;;;5013987;28;45463;-73
2023/09/02 09:23:05;;;;;;;;;4.75;3.25;;;;;;;;5016380;28;45842;-73
2023/09/02 09:25:30;;;;;;;;;4.00;4.00;;;;;;;;5010142;28;45729;-74
2023/09/02 09:28:05;;;;;;;;;3.75;3.25;;;;;;;;5018241;28;45277;-75
2023/09/02 09:30:31;;;;;;;;;6.00;4.80;;;;;;;;5006759;28;45376;-74
2023/09/02 09:32:58;;;;;;;;;3.75;3.75;;;;;;;;5015868;28;45370;-73
2023/09/02 09:35:23;;;;;;;;;10.60;10.60;;;;;;;;5008862;28;45352;-74
2023/09/02 09:37:52;;;;;;;;;7.00;5.75;;;;;;;;5016062;28;45409;-77
2023/09/02 09:40:27;;;;;;;;;4.80;3.80;;;;;;;;5007108;28;45376;-77
2023/09/02 09:42:52;;;;;;;;;6.60;3.80;;;;;;;;5017880;28;46099;-73
2023/09/02 09:45:17;;;;;;;;;4.75;4.50;;;;;;;;5012113;28;45277;-77
2023/09/02 09:47:45;;;;;;;;;5.50;1.25;;;;;;;;5017441;28;45396;-76
2023/09/02 09:50:12;;;;;;;;;3.00;2.00;;;;;;;;5013803;28;45583;-78
2023/09/02 09:52:37;;;;;;;;;3.40;3.40;;;;;;;;5017065;28;45386;-73
2023/09/02 09:55:02;;;;;;;;;3.50;3.50;;;;;;;;5015526;28;45304;-72
2023/09/02 09:57:29;;;;;;;;;4.75;3.75;;;;;;;;5017726;28;45297;-74
2023/09/02 09:59:54;;;;;;;;;2.80;2.80;;;;;;;;5008937;28;45434;-74
2023/09/02 10:02:23;;;;;;;;;3.00;3.00;;;;;;;;5016556;28;46403;-75
2023/09/02 10:04:49;;;;;;;;;5.00;1.20;;;;;;;;5009636;28;45384;-75
2023/09/02 10:07:17;;;;;;;;;131.00;123.67;;;;;;;;5017853;28;45389;-78
2023/09/02 10:09:42;;;;;;;;;44.00;37.33;;;;;;;;5014013;28;45535;-78
2023/09/02 10:12:18;;;;;;;;;25.50;23.25;;;;;;;;5020953;28;45634;-75
2023/09/02 10:14:44;;;;;;;;;7.20;6.20;;;;;;;;5010673;28;45705;-76
2023/09/02 10:17:10;;;;;;;;;8.40;8.40;;;;;;;;5012598;28;45335;-75
2023/09/02 10:19:36;;;;;;;;;12.50;11.75;;;;;;;;5011625;28;45326;-76
2023/09/02 10:22:02;;;;;;;;;13.80;13.80;;;;;;;;5014905;28;45174;-77
2023/09/02 10:24:30;;;;;;;;;4.00;3.00;;;;;;;;5012070;28;45380;-78
2023/09/02 10:26:58;;;;;;;;;6.40;6.40;;;;;;;;5021619;28;45247;-79
2023/09/02 10:29:27;;;;;;;;;4.20;2.20;;;;;;;;5017988;28;45515;-79
2023/09/02 10:31:55;;;;;;;;;2.00;2.00;;;;;;;;5024281;28;45309;-80
2023/09/02 10:34:31;;;;;;;;;2.20;2.00;;;;;;;;5018979;28;45262;-79
2023/09/02 10:36:57;;;;;;;;;5.80;4.40;;;;;;;;5021041;28;45395;-79
2023/09/02 10:39:41;;;;;;;;;3.00;3.00;;;;;;;;5016261;28;45477;-75
2023/09/02 10:42:06;;;;;;;;;3.60;3.00;;;;;;;;5019608;28;45465;-74
2023/09/02 10:44:32;;;;;;;;;1.75;1.75;;;;;;;;5017688;28;45379;-78
2023/09/02 10:46:57;;;;;;;;;1.75;1.75;;;;;;;;5019299;28;45410;-77
2023/09/02 10:49:23;;;;;;;;;1.75;0.50;;;;;;;;5017362;28;45451;-74
2023/09/02 10:51:49;;;;;;;;;1.75;1.00;;;;;;;;5020679;28;45374;-76
2023/09/02 10:54:14;;;;;;;;;1.00;1.00;;;;;;;;5014891;28;45428;-76
2023/09/02 10:56:39;;;;;;;;;1.00;1.00;;;;;;;;5020521;28;45459;-77
2023/09/02 10:59:05;;;;;;;;;1.50;0.50;;;;;;;;5014822;28;45401;-75
2023/09/02 11:01:49;;;;;;;;;1.00;1.00;;;;;;;;5020261;28;46212;-77
2023/09/02 11:04:34;;;;;;;;;1.60;0.20;;;;;;;;5016219;28;45357;-77
2023/09/02 11:07:18;;;;;;;;;1.00;1.00;;;;;;;;5018669;28;45459;-77
2023/09/02 11:09:56;;;;;;;;;5.80;2.20;;;;;;;;5006626;28;45551;-77
2023/09/02 11:12:21;;;;;;;;;1.80;0.60;;;;;;;;5020299;28;46178;-76
2023/09/02 11:15:05;;;;;;;;;2.50;1.25;;;;;;;;5008116;28;45368;-76
2023/09/02 11:17:30;;;;;;;;;5.20;1.40;;;;;;;;5008061;28;45629;-74
2023/09/02 11:19:57;;;;;;;;;0.50;0.50;;;;;;;;5008464;28;45755;-73
2023/09/02 11:22:40;;;;;;;;;6.40;4.00;;;;;;;;5007430;28;46193;-75
2023/09/02 11:25:06;;;;;;;;;2.20;1.00;;;;;;;;5008763;28;45672;-75
2023/09/02 11:27:44;;;;;;;;;1.50;1.00;;;;;;;;5014842;28;45422;-75
2023/09/02 11:30:10;;;;;;;;;1.80;1.60;;;;;;;;5008896;28;45558;-73
2023/09/02 11:32:43;;;;;;;;;1.25;1.00;;;;;;;;5017223;28;46039;-75
2023/09/02 11:35:08;;;;;;;;;2.80;2.80;;;;;;;;5001313;28;45647;-74
2023/09/02 11:37:33;;;;;;;;;3.75;3.50;;;;;;;;5000724;28;45700;-82
2023/09/02 11:40:11;;;;;;;;;5.25;4.00;;;;;;;;5001188;28;45594;-75
2023/09/02 11:42:46;;;;;;;;;2.20;2.20;;;;;;;;5002582;28;46278;-75
2023/09/02 11:45:13;;;;;;;;;2.00;2.00;;;;;;;;5014985;28;45289;-74
2023/09/02 11:47:38;;;;;;;;;3.20;1.40;;;;;;;;5015752;28;45427;-74
2023/09/02 11:50:03;;;;;;;;;0.00;0.00;;;;;;;;5009706;28;45477;-75
2023/09/02 11:52:29;;;;;;;;;1.50;0.75;;;;;;;;5005849;28;46225;-75
2023/09/02 11:54:54;;;;;;;;;1.25;1.25;;;;;;;;5003667;28;45311;-76
2023/09/02 11:57:19;;;;;;;;;1.25;1.25;;;;;;;;5004465;28;45509;-74
2023/09/02 11:59:45;;;;;;;;;1.25;1.00;;;;;;;;5002269;28;45527;-74
2023/09/02 12:02:11;;;;;;;;;0.75;0.75;;;;;;;;5003540;28;45429;-75
2023/09/02 12:04:40;;;;;;;;;3.00;2.00;;;;;;;;5001359;28;45355;-75
2023/09/02 12:07:06;;;;;;;;;1.60;1.00;;;;;;;;5002301;28;45428;-74
2023/09/02 12:09:34;;;;;;;;;3.00;1.50;;;;;;;;5002791;28;45380;-78
2023/09/02 12:12:00;;;;;;;;;3.20;2.20;;;;;;;;5006201;28;45471;-76
2023/09/02 12:14:26;;;;;;;;;1.80;1.00;;;;;;;;5011203;28;45289;-78
2023/09/02 12:16:52;;;;;;;;;2.60;1.80;;;;;;;;5009130;28;45261;-79
2023/09/02 12:19:18;;;;;;;;;2.25;2.25;;;;;;;;5013731;28;45297;-77
2023/09/02 12:21:43;;;;;;;;;1.00;1.00;;;;;;;;5020928;28;45332;-77
2023/09/02 12:24:08;;;;;;;;;1.00;1.00;;;;;;;;5013529;28;45261;-79
2023/09/02 12:26:44;;;;;;;;;1.50;1.00;;;;;;;;5016930;28;45662;-77
2023/09/02 12:29:13;;;;;;;;;0.20;0.20;;;;;;;;5014403;28;45585;-74
2023/09/02 12:31:39;;;;;;;;;1.00;1.00;;;;;;;;5008524;28;46197;-73
2023/09/02 12:34:04;;;;;;;;;0.25;0.25;;;;;;;;5015968;28;45421;-74
2023/09/02 12:36:33;;;;;;;;;0.00;0.00;;;;;;;;5017457;28;45436;-74
2023/09/02 12:38:58;;;;;;;;;1.20;1.20;;;;;;;;5013583;28;45331;-73
2023/09/02 12:41:36;;;;;;;;;0.25;0.25;;;;;;;;5015313;28;45459;-74
2023/09/02 12:44:13;;;;;;;;;2.80;1.20;;;;;;;;5014189;28;45254;-73
2023/09/02 12:46:38;;;;;;;;;13.20;11.40;;;;;;;;5009780;28;45438;-74
2023/09/02 12:49:04;;;;;;;;;4.50;4.50;;;;;;;;5013769;28;45355;-74
2023/09/02 12:51:30;;;;;;;;;156.00;98.67;;;;;;;;5016049;28;45432;-73
2023/09/02 12:53:55;;;;;;;;;12.75;11.75;;;;;;;;5014318;28;45841;-72
2023/09/02 12:56:20;;;;;;;;;9.00;6.00;;;;;;;;5012937;28;45537;-73
2023/09/02 12:58:45;;;;;;;;;11.00;5.75;;;;;;;;5015635;28;45315;-75
2023/09/02 13:01:11;;;;;;;;;15.25;9.75;;;;;;;;5013590;28;45661;-74
2023/09/02 13:03:36;;;;;;;;;3.25;2.00;;;;;;;;5016001;28;45560;-74
2023/09/02 13:06:01;;;;;;;;;15.75;10.25;;;;;;;;5012831;28;45649;-75
2023/09/02 13:08:26;;;;;;;;;2.00;2.00;;;;;;;;5015889;28;45285;-73
2023/09/02 13:10:51;;;;;;;;;1.75;1.00;;;;;;;;5015034;28;45447;-73
2023/09/02 13:13:17;;;;;;;;;5.00;2.00;;;;;;;;5015256;28;45693;-72
2023/09/02 13:15:42;;;;;;;;;1.50;1.50;;;;;;;;5012793;28;45209;-74
2023/09/02 13:18:07;;;;;;;;;1.75;1.00;;;;;;;;5016220;28;45284;-73
2023/09/02 13:20:35;;;;;;;;;2.75;1.00;;;;;;;;5013974;28;45379;-73
2023/09/02 13:23:00;;;;;;;;;5.20;3.20;;;;;;;;5017029;28;45246;-72
2023/09/02 13:25:26;;;;;;;;;4.25;2.00;;;;;;;;5011437;28;45364;-72
2023/09/02 13:27:51;;;;;;;;;4.75;2.75;;;;;;;;5016527;28;45335;-73
2023/09/02 13:30:20;;;;;;;;;9.25;7.25;;;;;;;;5012429;28;45421;-73
2023/09/02 13:32:46;;;;;;;;;0.00;0.00;;;;;;;;5016968;28;45324;-73
2023/09/02 13:35:16;;;;;;;;;0.25;0.25;;;;;;;;5015039;28;45514;-72
2023/09/02 13:37:50;;;;;;;;;3.80;1.40;;;;;;;;5014292;28;45370;-73
2023/09/02 13:40:15;;;;;;;;;6.00;2.80;;;;;;;;5011728;28;46269;-73
2023/09/02 13:42:42;;;;;;;;;2.50;1.75;;;;;;;;5014687;28;45257;-75
2023/09/02 13:45:10;;;;;;;;;3.20;1.20;;;;;;;;5016365;28;45515;-74
2023/09/02 13:47:35;;;;;;;;;7.80;3.00;;;;;;;;5018724;28;45644;-74
2023/09/02 13:50:00;;;;;;;;;2.00;1.00;;;;;;;;5016087;28;45431;-74
2023/09/02 13:52:27;;;;;;;;;3.50;2.00;;;;;;;;5019091;28;45495;-74
2023/09/02 13:54:55;;;;;;;;;2.20;2.20;;;;;;;;5016077;28;45257;-73
2023/09/02 13:57:23;;;;;;;;;0.00;0.00;;;;;;;;5019887;28;45491;-72
2023/09/02 13:59:53;;;;;;;;;2.00;2.00;;;;;;;;5012794;28;45415;-74
2023/09/02 14:02:20;;;;;;;;;3.20;1.00;;;;;;;;5019108;28;45290;-73
2023/09/02 14:04:46;;;;;;;;;3.40;2.80;;;;;;;;5012164;28;45431;-74
2023/09/02 14:07:15;;;;;;;;;1.50;1.00;;;;;;;;5008327;28;45791;-73
2023/09/02 14:09:42;;;;;;;;;0.60;0.60;;;;;;;;5013925;28;46158;-72
2023/09/02 14:12:18;;;;;;;;;2.80;2.20;;;;;;;;5018053;28;45393;-73
2023/09/02 14:14:44;;;;;;;;;2.40;2.00;;;;;;;;5012485;28;46802;-72
2023/09/02 14:17:09;;;;;;;;;2.00;1.00;;;;;;;;5019710;28;45503;-72
2023/09/02 14:19:34;;;;;;;;;2.75;1.00;;;;;;;;5013410;28;45346;-73
2023/09/02 14:22:00;;;;;;;;;1.50;1.50;;;;;;;;5023722;28;45538;-73
2023/09/02 14:24:25;;;;;;;;;4.50;3.00;;;;;;;;5012188;28;45400;-74
2023/09/02 14:27:05;;;;;;;;;1.50;1.25;;;;;;;;5020713;28;45250;-73
2023/09/02 14:29:30;;;;;;;;;2.20;2.00;;;;;;;;5014027;28;45355;-73
2023/09/02 14:31:56;;;;;;;;;3.50;2.00;;;;;;;;5020548;28;45447;-73